Newcastle University, New South Wales

10:28 PM EST on August 22, 2014 (GMT +1000)
Warabrook | Change Station
CLOSE
Current Station
Personal Weather Station
Location: Warabrook, NEW SOUTH WALES
Elevation: 39 ft
Nearby Weather Stations

Elev 39 ft 32.88 °S, 151.72 °E | Updated 14 minutes ago

Scattered Clouds
Scattered Clouds
53.7 °F
Feels Like 53.7 °F
N
0.0
Wind Variable Wind from ESE
Gusts 0.0 mph

Today
High -- | Low -- °F
--% Chance of Precip.
Yesterday
High -- | Low -- °F
Precip. -- in
6:23 AM 5:29 PM
Waning Crescent, 8% visible
Pressure 30.42 in
Visibility 6.2 miles
Clouds Scattered Clouds 3300 ft
Scattered Clouds 4500 ft
Scattered Clouds 5300 ft
Dew Point 52 °F
Humidity 93%
Rainfall 0.57 in
Snow Depth Not available.
UV 0 out of 12
Pollen Not available.
Air Quality Not available.
Flu Activity Not available.
METAR YWLM 221200Z AUTO 02005KT 9999 // SCT033 SCT045 SCT053 11/11 Q1030

More Conditions Fewer Conditions

Pressure 30.42 in
Visibility 6.2 miles
Clouds Scattered Clouds 3300 ft
Scattered Clouds 4500 ft
Scattered Clouds 5300 ft
Dew Point 52 °F
Humidity 93%
Rainfall 0.57 in
Snow Depth Not available.
UV 0 out of 12
Pollen Not available.
Air Quality Not available.
Flu Activity Not available.
METAR YWLM 221200Z AUTO 02005KT 9999 // SCT033 SCT045 SCT053 11/11 Q1030

More Conditions Fewer Conditions

10-Day Weather Forecast

Almanac

Astronomy

Aug. 22, 2014 Rise Set
Actual Time 6:23 AM EST 5:29 PM EST
Civil Twilight 5:58 AM EST 5:54 PM EST
Nautical Twilight 5:29 AM EST 6:23 PM EST
Astronomical Twilight 5:00 AM EST 6:52 PM EST
Moon 3:49 AM EST 2:37 PM EST
Length of Visible Light 11h 55m
Length of Day
11h 05m
Tomorrow will be 1m 49s longer.
Waning Crescent, 8% of the Moon is Illuminated
Today
Waning Crescent
Aug 25
New
Sep 2
First Quarter
Sep 8
Full
Sep 15
Last Quarter

Yesterday's Extremes

Country Highs Country Lows

Community

WunderPhotos

Upload Photos

1,746,156 photos uploaded!

WunderBlogs® & News

By Dr. Jeff Masters
Director of Meteorology, Weather Underground
By Kari Strenfel
Meteorologist, Weather Underground
By Christopher C. Burt
Weather Historian, Weather Underground
August 22, 2014
August 22, 2014
August 22, 2014

Nearby

Snow Depth

Not available.

Earthquake Activity

City Distance Mag. Time & Date
No recent earthquake activity has been reported nearby.
Minimum magnitude displayed is 2.5.

Coastal Water Temperatures

Place Temperature
No Stations Reporting

Nearby Weather Stations